Time;durP1;ratioP1;P1;durP2;ratioP2;P2;SDS_P1;SDS_P2;PMS_P1;PMS_P2;Temp;Humidity;BMP_temperature;BMP_pressure;BME280_temperature;BME280_humidity;BME280_pressure;Samples;Min_cycle;Max_cycle;Signal;HPM_P1;HPM_P2
2022/03/29 00:00:40;;;;;;;0.50;0.40;;;;;;;11.05;44.88;99744.56;104168;1281;98778;-78
2022/03/29 00:03:08;;;;;;;0.50;0.40;;;;;;;11.00;45.02;99741.20;104079;1281;138298;-77
2022/03/29 00:05:38;;;;;;;0.50;0.40;;;;;;;10.92;45.04;99736.18;103996;1281;95258;-76
2022/03/29 00:08:06;;;;;;;0.50;0.40;;;;;;;10.88;45.24;99732.77;103844;1284;95255;-76
2022/03/29 00:10:34;;;;;;;0.40;0.40;;;;;;;10.79;45.48;99735.60;103874;1281;138777;-78
2022/03/29 00:13:02;;;;;;;0.50;0.40;;;;;;;10.72;45.56;99729.80;103975;1281;98325;-77
2022/03/29 00:15:30;;;;;;;0.40;0.40;;;;;;;10.68;45.60;99726.77;103691;1282;138334;-77
2022/03/29 00:17:58;;;;;;;0.50;0.40;;;;;;;10.68;45.66;99734.25;103919;1281;96461;-78
2022/03/29 00:20:26;;;;;;;0.50;0.40;;;;;;;10.65;45.73;99727.41;104207;1281;95233;-77
2022/03/29 00:22:54;;;;;;;0.50;0.50;;;;;;;10.65;45.81;99717.14;103821;1283;137735;-76
2022/03/29 00:25:22;;;;;;;0.40;0.40;;;;;;;10.64;45.93;99712.00;104182;1281;98426;-76
2022/03/29 00:27:51;;;;;;;0.50;0.40;;;;;;;10.54;46.22;99707.05;104062;1281;137901;-77
2022/03/29 00:30:19;;;;;;;0.50;0.50;;;;;;;10.48;46.16;99700.20;104058;1281;96779;-76
2022/03/29 00:32:47;;;;;;;0.50;0.40;;;;;;;10.50;46.18;99698.71;104160;1280;95165;-76
2022/03/29 00:35:15;;;;;;;0.50;0.50;;;;;;;10.53;46.16;99699.63;104120;1280;138710;-76
2022/03/29 00:37:43;;;;;;;0.50;0.50;;;;;;;10.60;46.03;99705.80;103900;1282;98645;-77
2022/03/29 00:40:12;;;;;;;0.40;0.40;;;;;;;10.50;46.29;99698.89;103861;1280;137852;-77
2022/03/29 00:42:41;;;;;;;0.50;0.50;;;;;;;10.42;46.38;99695.61;103856;1281;95278;-78
2022/03/29 00:45:09;;;;;;;0.40;0.40;;;;;;;10.43;46.42;99686.71;103887;1281;138033;-77
2022/03/29 00:47:37;;;;;;;0.50;0.40;;;;;;;10.46;46.35;99686.42;103989;1281;107096;-77
2022/03/29 00:50:06;;;;;;;0.40;0.40;;;;;;;10.47;46.38;99687.98;104175;1281;98435;-76
2022/03/29 00:52:34;;;;;;;0.50;0.50;;;;;;;10.43;46.38;99685.45;103814;1283;138346;-77
2022/03/29 00:55:05;;;;;;;0.60;0.60;;;;;;;10.49;46.39;99690.40;103894;1283;95129;-76
2022/03/29 00:57:34;;;;;;;0.40;0.40;;;;;;;10.56;46.31;99687.84;103868;1280;138535;-77
2022/03/29 01:00:04;;;;;;;0.40;0.40;;;;;;;10.56;46.34;99680.73;103957;1281;108565;-77
2022/03/29 01:02:35;;;;;;;0.50;0.50;;;;;;;10.51;46.56;99674.17;103996;1281;98255;-77
2022/03/29 01:05:03;;;;;;;0.50;0.50;;;;;;;10.44;46.65;99671.42;103864;1280;139116;-77
2022/03/29 01:07:31;;;;;;;0.50;0.40;;;;;;;10.43;46.98;99679.06;103925;1281;96349;-77
2022/03/29 01:10:01;;;;;;;0.50;0.40;;;;;;;10.44;47.18;99679.06;104053;1279;138545;-76
2022/03/29 01:12:33;;;;;;;0.50;0.40;;;;;;;10.37;47.36;99672.89;104095;1281;108461;-77
2022/03/29 01:15:03;;;;;;;0.50;0.50;;;;;;;10.32;47.63;99673.77;103881;1280;138279;-77
2022/03/29 01:17:40;;;;;;;0.50;0.50;;;;;;;10.23;47.89;99671.27;103755;1281;108344;-76
2022/03/29 01:20:22;;;;;;;0.50;0.50;;;;;;;10.17;48.24;99670.05;104238;1279;96112;-78
2022/03/29 01:22:51;;;;;;;0.50;0.50;;;;;;;10.15;48.42;99670.48;103968;1281;138550;-78
2022/03/29 01:25:24;;;;;;;0.50;0.50;;;;;;;10.10;48.56;99671.36;104106;1281;108690;-77
2022/03/29 01:27:53;;;;;;;0.70;0.70;;;;;;;10.13;48.57;99666.84;104099;1281;227378;-76
2022/03/29 01:30:22;;;;;;;0.50;0.50;;;;;;;10.15;48.67;99668.34;103927;1283;109066;-76
2022/03/29 01:32:51;;;;;;;0.50;0.50;;;;;;;10.19;48.52;99663.59;104247;1280;95268;-76
2022/03/29 01:35:24;;;;;;;0.50;0.50;;;;;;;10.14;48.67;99658.09;104127;1280;138303;-75
2022/03/29 01:37:53;;;;;;;0.50;0.50;;;;;;;10.07;48.97;99654.66;104133;1282;108480;-76
2022/03/29 01:40:23;;;;;;;0.50;0.50;;;;;;;10.02;48.89;99652.70;104181;1281;138137;-75
2022/03/29 01:42:53;;;;;;;0.50;0.50;;;;;;;9.94;49.22;99651.39;104066;1280;108398;-76
2022/03/29 01:45:24;;;;;;;0.50;0.50;;;;;;;9.94;49.25;99651.73;104084;1279;138101;-77
2022/03/29 01:47:52;;;;;;;0.60;0.60;;;;;;;9.96;49.12;99648.65;103956;1282;95266;-75
2022/03/29 01:50:20;;;;;;;0.50;0.50;;;;;;;9.95;49.32;99645.85;104024;1279;108637;-77
2022/03/29 01:52:49;;;;;;;0.50;0.50;;;;;;;9.95;49.15;99638.39;103830;1281;137814;-77
2022/03/29 01:55:19;;;;;;;0.50;0.50;;;;;;;9.95;49.19;99632.55;104005;1280;108408;-76
2022/03/29 01:57:48;;;;;;;0.50;0.50;;;;;;;9.97;49.16;99635.14;103711;1281;138521;-78
2022/03/29 02:00:38;;;;;;;0.50;0.50;;;;;;;10.00;49.22;99633.95;104235;1279;95112;-75
2022/03/29 02:03:07;;;;;;;0.50;0.50;;;;;;;9.99;49.15;99635.25;104043;1279;138033;-76
2022/03/29 02:05:37;;;;;;;0.50;0.50;;;;;;;9.95;49.28;99640.02;104054;1281;98357;-76
2022/03/29 02:08:05;;;;;;;0.50;0.50;;;;;;;9.94;49.32;99637.36;104121;1280;107548;-77
2022/03/29 02:10:33;;;;;;;0.50;0.50;;;;;;;9.92;49.47;99632.10;103898;1279;137728;-76
2022/03/29 02:13:02;;;;;;;0.50;0.50;;;;;;;9.88;49.61;99627.30;104292;1279;96215;-74
2022/03/29 02:15:30;;;;;;;0.50;0.50;;;;;;;9.83;49.78;99629.95;103996;1279;138122;-77
2022/03/29 02:17:58;;;;;;;0.50;0.50;;;;;;;9.86;49.76;99629.52;103870;1281;98580;-77
2022/03/29 02:20:26;;;;;;;0.50;0.50;;;;;;;9.84;49.75;99625.49;103941;1281;109053;-76
2022/03/29 02:22:54;;;;;;;0.50;0.50;;;;;;;9.77;49.94;99627.85;104132;1281;137608;-77
2022/03/29 02:25:22;;;;;;;0.50;0.50;;;;;;;9.76;50.02;99625.41;104178;1279;95274;-77
2022/03/29 02:27:51;;;;;;;0.50;0.50;;;;;;;9.77;49.91;99625.57;104092;1279;137388;-76
2022/03/29 02:30:19;;;;;;;0.50;0.50;;;;;;;9.75;50.18;99629.73;104198;1279;97218;-74
2022/03/29 02:32:47;;;;;;;0.50;0.50;;;;;;;9.80;49.85;99625.11;103941;1280;107731;-77
2022/03/29 02:35:15;;;;;;;0.60;0.60;;;;;;;9.75;50.17;99623.48;103839;1280;138011;-76
2022/03/29 02:37:44;;;;;;;0.50;0.50;;;;;;;9.62;50.43;99619.34;103931;1280;95247;-77
2022/03/29 02:40:14;;;;;;;0.50;0.50;;;;;;;9.51;50.93;99626.10;104104;1280;138438;-76
2022/03/29 02:42:47;;;;;;;0.50;0.50;;;;;;;9.40;51.32;99622.76;103927;1279;98882;-76
2022/03/29 02:45:16;;;;;;;0.50;0.50;;;;;;;9.42;51.44;99625.17;103807;1281;138398;-76
2022/03/29 02:47:46;;;;;;;0.50;0.50;;;;;;;9.39;51.47;99626.16;103964;1281;96262;-75
2022/03/29 02:50:14;;;;;;;0.50;0.50;;;;;;;9.42;51.53;99632.62;104343;1280;95196;-76
2022/03/29 02:52:45;;;;;;;0.50;0.50;;;;;;;9.35;51.75;99630.89;104119;1279;138539;-77
2022/03/29 02:55:13;;;;;;;0.50;0.50;;;;;;;9.30;52.06;99630.88;104027;1280;98328;-76
2022/03/29 02:57:42;;;;;;;0.50;0.50;;;;;;;9.23;52.01;99628.48;103825;1283;137964;-76
2022/03/29 03:00:15;;;;;;;0.60;0.60;;;;;;;9.23;51.94;99627.59;104104;1279;96147;-76
2022/03/29 03:02:44;;;;;;;0.50;0.50;;;;;;;9.31;51.90;99624.31;104243;1280;96064;-76
2022/03/29 03:05:13;;;;;;;0.50;0.50;;;;;;;9.31;52.13;99621.99;104050;1279;137815;-76
2022/03/29 03:07:44;;;;;;;0.60;0.60;;;;;;;9.31;52.22;99615.26;104095;1279;98332;-76
2022/03/29 03:10:13;;;;;;;0.60;0.60;;;;;;;9.31;52.11;99613.33;103871;1280;138864;-77
2022/03/29 03:12:47;;;;;;;0.50;0.50;;;;;;;9.30;52.26;99618.50;104183;1279;95167;-76
2022/03/29 03:15:20;;;;;;;0.50;0.50;;;;;;;9.30;52.31;99624.86;103920;1280;138424;-77
2022/03/29 03:17:50;;;;;;;0.50;0.50;;;;;;;9.26;52.43;99623.73;104005;1279;109766;-77
2022/03/29 03:20:18;;;;;;;0.60;0.60;;;;;;;9.20;52.68;99620.07;104040;1280;98396;-76
2022/03/29 03:22:46;;;;;;;0.60;0.60;;;;;;;9.13;52.74;99617.11;103983;1280;137970;-77
2022/03/29 03:25:15;;;;;;;0.60;0.60;;;;;;;9.10;52.93;99620.57;104115;1279;95538;-76
2022/03/29 03:27:43;;;;;;;0.60;0.60;;;;;;;9.12;53.00;99623.52;104042;1279;138771;-76
2022/03/29 03:30:14;;;;;;;0.50;0.50;;;;;;;9.15;52.82;99626.59;104084;1280;108318;-77
2022/03/29 03:32:42;;;;;;;0.50;0.50;;;;;;;9.16;52.96;99622.13;104006;1281;98134;-77
2022/03/29 03:35:16;;;;;;;0.50;0.50;;;;;;;9.20;52.85;99620.61;104042;1279;137181;-75
2022/03/29 03:37:44;;;;;;;0.50;0.50;;;;;;;9.28;52.74;99622.09;103928;1280;95151;-76
2022/03/29 03:40:12;;;;;;;0.50;0.50;;;;;;;9.23;52.82;99620.85;103922;1280;137567;-76
2022/03/29 03:42:41;;;;;;;0.50;0.50;;;;;;;9.17;52.96;99622.45;103962;1280;108713;-74
2022/03/29 03:45:10;;;;;;;0.50;0.50;;;;;;;9.08;53.29;99627.36;104443;1279;139913;-76
2022/03/29 03:47:38;;;;;;;0.50;0.50;;;;;;;9.06;53.60;99629.20;103914;1280;106433;-76
2022/03/29 03:50:08;;;;;;;0.50;0.50;;;;;;;9.05;53.71;99631.88;104150;1280;96346;-76
2022/03/29 03:52:36;;;;;;;0.50;0.50;;;;;;;8.98;53.82;99630.88;104202;1279;137590;-77
2022/03/29 03:55:05;;;;;;;0.50;0.50;;;;;;;8.92;54.08;99630.54;104216;1279;108311;-76
2022/03/29 03:57:33;;;;;;;0.60;0.60;;;;;;;8.89;54.22;99636.64;104095;1280;137455;-75
2022/03/29 04:00:01;;;;;;;0.50;0.50;;;;;;;8.81;54.46;99639.73;103852;1280;107502;-75
2022/03/29 04:02:39;;;;;;;0.60;0.60;;;;;;;8.78;54.35;99641.77;104133;1280;95344;-76
2022/03/29 04:05:12;;;;;;;0.50;0.50;;;;;;;8.72;55.10;99641.96;104102;1279;138399;-77
2022/03/29 04:07:40;;;;;;;0.60;0.60;;;;;;;8.71;55.20;99643.21;104134;1280;109984;-76
2022/03/29 04:10:09;;;;;;;0.60;0.60;;;;;;;8.68;55.16;99633.41;104063;1279;137979;-76
2022/03/29 04:12:37;;;;;;;0.70;0.70;;;;;;;8.61;55.37;99627.09;103994;1280;107764;-77
2022/03/29 04:15:06;;;;;;;0.60;0.60;;;;;;;8.58;55.66;99621.69;103969;1279;138102;-76
2022/03/29 04:17:34;;;;;;;0.50;0.50;;;;;;;8.58;55.34;99626.63;104217;1279;95255;-75
2022/03/29 04:20:06;;;;;;;0.60;0.60;;;;;;;8.60;55.74;99649.56;104001;1280;109338;-76
2022/03/29 04:22:34;;;;;;;0.60;0.60;;;;;;;8.45;55.93;99656.55;104110;1279;138112;-76
2022/03/29 04:25:02;;;;;;;0.60;0.60;;;;;;;8.50;55.90;99655.90;104140;1279;107642;-75
2022/03/29 04:27:30;;;;;;;0.60;0.60;;;;;;;8.57;55.96;99645.44;103909;1279;139053;-76
2022/03/29 04:29:58;;;;;;;0.50;0.50;;;;;;;8.62;55.70;99639.62;104137;1280;95242;-75
2022/03/29 04:32:26;;;;;;;0.50;0.50;;;;;;;8.65;56.10;99618.27;103749;1281;108745;-77
2022/03/29 04:34:54;;;;;;;0.60;0.60;;;;;;;8.64;56.53;99619.18;104059;1279;139220;-77
2022/03/29 04:37:25;;;;;;;0.60;0.60;;;;;;;8.59;56.62;99612.61;104101;1280;107812;-78
2022/03/29 04:39:53;;;;;;;0.60;0.60;;;;;;;8.64;56.91;99603.27;103953;1280;138948;-77
2022/03/29 04:42:21;;;;;;;0.50;0.50;;;;;;;8.67;57.05;99601.04;104227;1279;96123;-76
2022/03/29 04:44:49;;;;;;;0.60;0.60;;;;;;;8.68;57.02;99613.25;104148;1279;109365;-79
2022/03/29 04:47:17;;;;;;;0.60;0.60;;;;;;;8.62;57.44;99629.35;104036;1280;138134;-76
2022/03/29 04:49:46;;;;;;;0.60;0.60;;;;;;;8.53;57.83;99643.94;104294;1279;107890;-75
2022/03/29 04:52:14;;;;;;;0.60;0.60;;;;;;;8.50;58.07;99647.38;103867;1280;139328;-73
2022/03/29 04:54:42;;;;;;;0.60;0.60;;;;;;;8.45;57.98;99648.58;104167;1279;95303;-76
2022/03/29 04:57:10;;;;;;;0.60;0.60;;;;;;;8.42;58.20;99646.71;103865;1280;138515;-76
2022/03/29 04:59:38;;;;;;;0.60;0.60;;;;;;;8.43;58.27;99645.98;104165;1279;98176;-76
2022/03/29 05:02:06;;;;;;;0.60;0.60;;;;;;;8.40;58.39;99636.50;104150;1279;107863;-76
2022/03/29 05:04:34;;;;;;;0.50;0.50;;;;;;;8.36;58.45;99641.59;104069;1280;138433;-74
2022/03/29 05:07:02;;;;;;;0.50;0.50;;;;;;;8.24;59.19;99641.91;104037;1280;95239;-74
2022/03/29 05:09:30;;;;;;;0.60;0.60;;;;;;;8.22;58.82;99644.46;104048;1279;137703;-76
2022/03/29 05:11:59;;;;;;;0.60;0.60;;;;;;;8.28;59.08;99642.70;104147;1279;98761;-75
2022/03/29 05:14:27;;;;;;;0.60;0.60;;;;;;;8.29;59.07;99638.43;104195;1279;107811;-76
2022/03/29 05:16:55;;;;;;;0.60;0.60;;;;;;;8.31;59.09;99641.55;104041;1279;138730;-76
2022/03/29 05:19:23;;;;;;;0.60;0.60;;;;;;;8.40;58.59;99643.95;104086;1279;95219;-77
2022/03/29 05:21:50;;;;;;;0.60;0.60;;;;;;;8.36;58.95;99648.48;104011;1280;137609;-77
2022/03/29 05:24:19;;;;;;;0.60;0.60;;;;;;;8.35;59.04;99646.56;104228;1279;97316;-75
2022/03/29 05:26:47;;;;;;;0.60;0.60;;;;;;;8.33;59.08;99646.81;103859;1280;109486;-75
2022/03/29 05:29:17;;;;;;;0.60;0.60;;;;;;;8.40;58.59;99644.63;104103;1280;138420;-76
2022/03/29 05:31:45;;;;;;;0.60;0.60;;;;;;;8.47;58.58;99639.69;103955;1281;95270;-75
2022/03/29 05:34:14;;;;;;;0.60;0.60;;;;;;;8.50;58.58;99642.79;104028;1280;138007;-75
2022/03/29 05:36:45;;;;;;;0.60;0.60;;;;;;;8.47;58.70;99647.48;104140;1279;98456;-76
2022/03/29 05:39:16;;;;;;;0.60;0.60;;;;;;;8.51;58.36;99647.54;103975;1281;138741;-75
2022/03/29 05:41:45;;;;;;;0.60;0.60;;;;;;;8.53;58.37;99639.70;104194;1280;95311;-74
2022/03/29 05:44:13;;;;;;;0.60;0.60;;;;;;;8.60;58.15;99647.30;104190;1279;95235;-74
2022/03/29 05:49:28;;;;;;;0.60;0.60;;;;;;;8.69;58.28;99649.81;104144;1281;97147;-76
2022/03/29 05:51:56;;;;;;;0.60;0.60;;;;;;;8.61;58.34;99651.14;103851;1281;138232;-77
2022/03/29 05:54:24;;;;;;;0.60;0.60;;;;;;;8.54;58.50;99656.13;104224;1279;96322;-75
2022/03/29 05:56:53;;;;;;;0.60;0.60;;;;;;;8.42;58.72;99655.39;104193;1279;95852;-75
2022/03/29 05:59:21;;;;;;;0.60;0.60;;;;;;;8.41;59.26;99646.39;103719;1281;138013;-76
2022/03/29 06:01:49;;;;;;;0.60;0.60;;;;;;;8.45;59.25;99643.98;103976;1281;98954;-77
2022/03/29 06:04:22;;;;;;;0.60;0.60;;;;;;;8.51;59.02;99646.83;104011;1280;138940;-76
2022/03/29 06:06:51;;;;;;;0.60;0.60;;;;;;;8.62;58.95;99637.83;104071;1281;95937;-75
2022/03/29 06:09:19;;;;;;;0.60;0.60;;;;;;;8.68;58.83;99640.66;103758;1281;138141;-77
2022/03/29 06:11:47;;;;;;;0.60;0.60;;;;;;;8.72;58.94;99644.79;103931;1281;109744;-77
2022/03/29 06:14:16;;;;;;;0.60;0.60;;;;;;;8.84;58.75;99647.77;104117;1279;98404;-76
2022/03/29 06:16:44;;;;;;;0.50;0.50;;;;;;;8.93;58.36;99650.86;103904;1280;138398;-75
2022/03/29 06:19:12;;;;;;;0.60;0.60;;;;;;;8.85;58.39;99658.20;104155;1279;95270;-76
2022/03/29 06:21:41;;;;;;;0.60;0.60;;;;;;;8.74;58.48;99658.53;103818;1281;138424;-74
2022/03/29 06:24:10;;;;;;;0.60;0.60;;;;;;;8.63;59.04;99662.23;103902;1279;109349;-74
2022/03/29 06:26:40;;;;;;;0.50;0.50;;;;;;;8.64;59.03;99661.11;103991;1280;98864;-75
2022/03/29 06:29:09;;;;;;;0.50;0.50;;;;;;;8.62;59.07;99665.98;103953;1281;138067;-77
2022/03/29 06:31:38;;;;;;;0.60;0.60;;;;;;;8.59;59.19;99672.59;104055;1279;95980;-77
2022/03/29 06:34:07;;;;;;;0.60;0.60;;;;;;;8.64;58.87;99666.10;103939;1281;137617;-77
2022/03/29 06:36:35;;;;;;;0.60;0.60;;;;;;;8.72;58.93;99664.08;103816;1282;108757;-76
2022/03/29 06:39:04;;;;;;;0.50;0.50;;;;;;;8.75;59.26;99667.89;103958;1280;138653;-75
2022/03/29 06:41:32;;;;;;;0.60;0.60;;;;;;;8.77;58.86;99672.95;104094;1279;107862;-76
2022/03/29 06:44:00;;;;;;;0.50;0.50;;;;;;;8.80;58.90;99676.92;104121;1281;95286;-76
2022/03/29 06:46:28;;;;;;;0.60;0.60;;;;;;;8.79;58.72;99673.96;103802;1279;137691;-76
2022/03/29 06:48:57;;;;;;;0.60;0.60;;;;;;;8.70;58.86;99685.73;103847;1282;108528;-76
2022/03/29 06:51:27;;;;;;;0.60;0.60;;;;;;;8.63;59.00;99686.98;103922;1282;138258;-75
2022/03/29 06:53:55;;;;;;;0.60;0.60;;;;;;;8.57;59.06;99688.95;104165;1279;108724;-75
2022/03/29 06:56:24;;;;;;;0.60;0.60;;;;;;;8.51;59.01;99691.77;104054;1281;95248;-74
2022/03/29 06:58:52;;;;;;;0.60;0.60;;;;;;;8.49;59.01;99686.85;104041;1280;137851;-75
2022/03/29 07:01:21;;;;;;;0.60;0.60;;;;;;;8.56;58.87;99689.33;104041;1279;109665;-76
2022/03/29 07:03:51;;;;;;;0.50;0.50;;;;;;;8.58;58.80;99691.05;103986;1281;138713;-76
2022/03/29 07:06:19;;;;;;;0.50;0.50;;;;;;;8.61;58.74;99691.84;103900;1280;107651;-76
2022/03/29 07:11:53;;;;;;;0.70;0.70;;;;;;;8.66;58.38;99687.43;103997;1280;95161;-75
2022/03/29 07:14:21;;;;;;;0.70;0.70;;;;;;;8.60;58.31;99682.46;104144;1279;108769;-75
2022/03/29 07:16:50;;;;;;;0.60;0.60;;;;;;;8.65;58.48;99683.23;103847;1280;138762;-75
2022/03/29 07:19:18;;;;;;;0.60;0.60;;;;;;;8.65;58.35;99684.98;103941;1282;108838;-75
2022/03/29 07:21:48;;;;;;;0.60;0.60;;;;;;;8.60;58.39;99683.36;103969;1279;139345;-75
2022/03/29 07:24:16;;;;;;;0.50;0.50;;;;;;;8.60;58.48;99683.72;104028;1280;95727;-75
2022/03/29 07:26:44;;;;;;;0.50;0.50;;;;;;;8.58;58.67;99687.14;104237;1279;108731;-75
2022/03/29 07:29:18;;;;;;;0.60;0.60;;;;;;;8.70;58.60;99689.98;103997;1281;138529;-76
2022/03/29 07:31:47;;;;;;;0.50;0.50;;;;;;;8.79;58.40;99690.41;104141;1279;108343;-75
2022/03/29 07:34:15;;;;;;;0.60;0.60;;;;;;;8.80;58.04;99685.24;103872;1279;139198;-75
2022/03/29 07:36:43;;;;;;;0.50;0.50;;;;;;;8.93;57.94;99687.15;104184;1279;95617;-75
2022/03/29 07:39:11;;;;;;;0.50;0.50;;;;;;;8.96;57.90;99685.64;103996;1280;109950;-76
2022/03/29 07:41:39;;;;;;;0.50;0.50;;;;;;;9.03;57.74;99681.52;104038;1281;138423;-77
2022/03/29 07:44:08;;;;;;;0.60;0.60;;;;;;;9.06;57.76;99680.90;104178;1279;107734;-76
2022/03/29 07:46:36;;;;;;;0.60;0.60;;;;;;;9.05;57.51;99684.48;103822;1281;139155;-76
2022/03/29 07:49:04;;;;;;;0.60;0.60;;;;;;;9.05;57.74;99678.98;104236;1279;94481;-74
2022/03/29 07:51:52;;;;;;;0.60;0.60;;;;;;;9.01;57.77;99679.65;104012;1279;139759;-74
2022/03/29 07:54:20;;;;;;;0.50;0.50;;;;;;;9.02;57.83;99676.08;103943;1279;98092;-76
2022/03/29 07:56:48;;;;;;;0.50;0.50;;;;;;;9.08;57.56;99677.46;103997;1279;108882;-74
2022/03/29 07:59:16;;;;;;;0.50;0.50;;;;;;;9.16;57.64;99678.29;104072;1279;137485;-76
2022/03/29 08:01:44;;;;;;;0.50;0.50;;;;;;;9.15;57.37;99680.79;104206;1279;95820;-76
2022/03/29 08:04:12;;;;;;;0.60;0.60;;;;;;;9.11;57.30;99683.23;103959;1280;137636;-76
2022/03/29 08:06:40;;;;;;;0.60;0.60;;;;;;;9.16;57.47;99684.48;103918;1280;98677;-76
2022/03/29 08:09:09;;;;;;;0.50;0.50;;;;;;;9.27;57.26;99675.98;104175;1279;109569;-76
2022/03/29 08:11:38;;;;;;;0.50;0.50;;;;;;;9.36;56.95;99680.66;104022;1282;138618;-75
2022/03/29 08:14:07;;;;;;;0.50;0.50;;;;;;;9.34;57.03;99680.88;103990;1279;95046;-75
2022/03/29 08:16:34;;;;;;;0.50;0.50;;;;;;;9.40;57.05;99679.08;104120;1279;138530;-74
2022/03/29 08:19:03;;;;;;;0.50;0.50;;;;;;;9.33;57.00;99680.40;104223;1279;96909;-76
2022/03/29 08:21:49;;;;;;;0.50;0.50;;;;;;;9.40;57.28;99680.00;103970;1279;138917;-74
2022/03/29 08:24:20;;;;;;;0.50;0.50;;;;;;;9.52;56.82;99674.09;104215;1279;96180;-76
2022/03/29 08:26:51;;;;;;;0.50;0.50;;;;;;;9.61;56.44;99672.38;104110;1280;95933;-77
2022/03/29 08:29:21;;;;;;;0.50;0.40;;;;;;;9.68;56.31;99672.13;103837;1280;138843;-77
2022/03/29 08:31:49;;;;;;;0.50;0.50;;;;;;;9.76;56.07;99671.17;104172;1279;100070;-74
2022/03/29 08:34:17;;;;;;;0.50;0.50;;;;;;;9.81;55.90;99675.04;104057;1280;138501;-75
2022/03/29 08:36:46;;;;;;;0.50;0.50;;;;;;;9.82;55.83;99677.14;103919;1281;95201;-75
2022/03/29 08:39:14;;;;;;;0.50;0.40;;;;;;;9.89;55.89;99676.20;104136;1280;95352;-76
2022/03/29 08:41:49;;;;;;;0.40;0.40;;;;;;;9.94;55.71;99677.80;103941;1280;137696;-76
2022/03/29 08:44:19;;;;;;;0.50;0.50;;;;;;;9.93;55.47;99671.27;104062;1279;98466;-75
2022/03/29 08:46:49;;;;;;;0.50;0.50;;;;;;;9.97;55.62;99667.93;104012;1279;137913;-73
2022/03/29 08:49:17;;;;;;;0.40;0.40;;;;;;;10.01;55.29;99660.16;104135;1280;96646;-76
2022/03/29 08:51:45;;;;;;;0.50;0.50;;;;;;;10.17;55.23;99657.30;103954;1279;137878;-76
2022/03/29 08:54:14;;;;;;;0.50;0.40;;;;;;;10.36;54.54;99656.29;104166;1279;108703;-76
2022/03/29 08:56:42;;;;;;;0.50;0.40;;;;;;;10.37;54.52;99654.27;104243;1279;97353;-76
2022/03/29 08:59:10;;;;;;;0.50;0.40;;;;;;;10.46;54.50;99655.89;104033;1279;137953;-76
2022/03/29 09:01:38;;;;;;;0.50;0.40;;;;;;;10.62;54.23;99655.84;103998;1280;95192;-76
2022/03/29 09:04:12;;;;;;;0.50;0.40;;;;;;;10.76;53.91;99657.77;103846;1279;137950;-74
2022/03/29 09:06:56;;;;;;;0.50;0.40;;;;;;;10.73;53.62;99657.89;104369;1280;108860;-77
2022/03/29 09:09:34;;;;;;;0.50;0.40;;;;;;;10.75;53.76;99657.80;104120;1280;98484;-76
2022/03/29 09:12:19;;;;;;;0.50;0.50;;;;;;;10.76;53.39;99655.83;103991;1281;137813;-78
2022/03/29 09:14:56;;;;;;;0.50;0.50;;;;;;;10.67;53.30;99655.61;104149;1281;95244;-77
2022/03/29 09:17:35;;;;;;;0.40;0.40;;;;;;;10.67;53.41;99651.17;104019;1281;137991;-76
2022/03/29 09:20:14;;;;;;;0.50;0.40;;;;;;;10.87;53.11;99645.78;103845;1281;109265;-75
2022/03/29 09:22:49;;;;;;;0.40;0.40;;;;;;;10.99;52.95;99649.92;103721;1282;138565;-77
2022/03/29 09:25:20;;;;;;;0.50;0.50;;;;;;;11.17;52.72;99645.14;104043;1281;108319;-76
2022/03/29 09:28:00;;;;;;;0.40;0.40;;;;;;;11.87;51.31;99639.71;103754;1282;138125;-74
2022/03/29 09:30:38;;;;;;;0.40;0.30;;;;;;;11.93;50.27;99634.10;104104;1281;96250;-77
2022/03/29 09:33:40;;;;;;;0.40;0.30;;;;;;;11.75;50.77;99633.09;104216;1282;108806;-76
2022/03/29 09:36:09;;;;;;;0.40;0.40;;;;;;;11.73;50.69;99636.73;103976;1280;138024;-74
2022/03/29 09:38:47;;;;;;;0.40;0.30;;;;;;;11.58;50.99;99631.16;104032;1281;107767;-76
2022/03/29 09:41:26;;;;;;;0.40;0.30;;;;;;;11.65;51.16;99628.21;104118;1282;137969;-76
2022/03/29 09:44:00;;;;;;;0.40;0.40;;;;;;;11.69;50.95;99624.99;103952;1282;95249;-76
2022/03/29 09:46:31;;;;;;;0.40;0.30;;;;;;;11.59;50.80;99624.73;103879;1282;137935;-76
2022/03/29 09:49:01;;;;;;;0.40;0.40;;;;;;;11.38;50.95;99626.47;104055;1279;99052;-77
2022/03/29 09:51:29;;;;;;;0.40;0.30;;;;;;;11.20;51.05;99624.75;104179;1279;108977;-76
2022/03/29 09:53:59;;;;;;;0.40;0.30;;;;;;;11.13;51.44;99625.56;104004;1280;138295;-76
2022/03/29 09:56:30;;;;;;;0.40;0.40;;;;;;;11.05;51.52;99625.39;104045;1279;96438;-75
2022/03/29 09:59:17;;;;;;;0.50;0.40;;;;;;;10.88;51.87;99627.27;103921;1281;137771;-76
2022/03/29 10:01:54;;;;;;;0.40;0.30;;;;;;;10.79;52.19;99628.33;104318;1281;98228;-76
2022/03/29 10:04:25;;;;;;;0.50;0.40;;;;;;;10.60;52.72;99625.54;103913;1279;138303;-75
2022/03/29 10:06:56;;;;;;;0.50;0.40;;;;;;;10.49;53.23;99625.06;104057;1280;95686;-76
2022/03/29 10:09:33;;;;;;;0.50;0.40;;;;;;;10.47;53.34;99622.85;104144;1279;95207;-76
2022/03/29 10:12:03;;;;;;;0.50;0.40;;;;;;;10.50;53.14;99619.72;104030;1279;138120;-76
2022/03/29 10:14:43;;;;;;;0.40;0.40;;;;;;;10.50;52.94;99615.98;104208;1279;98638;-77
2022/03/29 10:17:15;;;;;;;0.50;0.40;;;;;;;10.61;52.46;99620.35;104223;1280;138633;-76
2022/03/29 10:19:44;;;;;;;0.40;0.40;;;;;;;10.65;52.55;99619.66;104627;1279;95287;-75
2022/03/29 10:22:12;;;;;;;0.50;0.40;;;;;;;10.63;52.73;99618.17;103918;1279;138649;-76
2022/03/29 10:24:41;;;;;;;0.40;0.40;;;;;;;10.58;53.12;99615.34;104160;1279;108729;-76
2022/03/29 10:27:09;;;;;;;0.50;0.40;;;;;;;10.52;52.89;99618.55;104293;1281;98717;-75
2022/03/29 10:29:41;;;;;;;0.50;0.40;;;;;;;10.52;52.71;99618.39;103915;1280;137890;-76
2022/03/29 10:32:10;;;;;;;0.50;0.40;;;;;;;10.57;52.64;99616.80;104125;1280;95297;-76
2022/03/29 10:34:42;;;;;;;0.40;0.40;;;;;;;10.57;52.65;99616.60;104023;1280;138187;-75
2022/03/29 10:37:21;;;;;;;0.50;0.40;;;;;;;10.52;52.66;99613.25;104005;1280;108821;-76
2022/03/29 10:39:57;;;;;;;0.40;0.40;;;;;;;10.51;52.95;99614.86;104020;1279;98248;-77
2022/03/29 10:42:31;;;;;;;0.50;0.40;;;;;;;10.46;52.78;99614.34;103801;1281;137997;-74
2022/03/29 10:45:11;;;;;;;0.50;0.50;;;;;;;10.36;52.54;99607.98;104137;1279;95312;-75
2022/03/29 10:48:00;;;;;;;0.50;0.40;;;;;;;10.37;52.32;99611.70;103915;1281;137629;-77
2022/03/29 10:50:47;;;;;;;0.40;0.40;;;;;;;10.34;50.71;99608.23;104160;1281;107103;-75
2022/03/29 10:53:24;;;;;;;0.50;0.40;;;;;;;10.26;50.23;99607.66;103981;1281;137792;-75
2022/03/29 10:56:26;;;;;;;0.50;0.40;;;;;;;10.18;50.11;99606.32;103902;1281;107830;-75
2022/03/29 10:59:09;;;;;;;0.50;0.50;;;;;;;10.19;50.13;99597.05;103369;1281;137836;-75
2022/03/29 11:01:39;;;;;;;0.50;0.40;;;;;;;10.18;50.32;99593.22;103799;1283;95623;-76
2022/03/29 11:04:15;;;;;;;0.50;0.50;;;;;;;10.16;50.48;99589.90;103996;1280;137803;-75
2022/03/29 11:07:22;;;;;;;0.50;0.40;;;;;;;10.22;50.82;99584.90;104036;1281;98663;-74
2022/03/29 11:10:13;;;;;;;0.50;0.40;;;;;;;10.48;50.78;99589.46;103300;1287;109174;-76
2022/03/29 11:12:51;;;;;;;0.40;0.40;;;;;;;10.65;50.38;99586.30;103091;1288;137707;-76
2022/03/29 11:15:32;;;;;;;0.50;0.40;;;;;;;10.69;50.17;99588.09;103718;1280;95757;-75
2022/03/29 11:18:01;;;;;;;0.40;0.40;;;;;;;10.66;49.88;99590.36;103915;1280;137772;-75
2022/03/29 11:20:39;;;;;;;0.40;0.40;;;;;;;10.59;50.05;99582.81;104095;1280;98370;-76
2022/03/29 11:23:09;;;;;;;0.40;0.40;;;;;;;10.63;50.21;99584.62;103978;1280;138388;-75
2022/03/29 11:25:43;;;;;;;0.50;0.40;;;;;;;10.55;50.07;99583.33;104088;1280;95265;-74
2022/03/29 11:28:13;;;;;;;0.50;0.40;;;;;;;10.50;50.01;99578.88;104404;1280;95204;-76
2022/03/29 11:30:41;;;;;;;0.50;0.40;;;;;;;10.55;49.80;99575.31;103774;1279;137396;-75
2022/03/29 11:33:11;;;;;;;0.40;0.40;;;;;;;10.64;49.72;99573.02;104238;1279;98350;-75
2022/03/29 11:35:39;;;;;;;0.40;0.40;;;;;;;10.65;48.78;99571.55;103870;1279;137763;-75
2022/03/29 11:38:10;;;;;;;0.50;0.40;;;;;;;10.60;48.53;99569.47;104093;1280;95255;-76
2022/03/29 11:40:39;;;;;;;0.40;0.40;;;;;;;10.68;48.65;99568.40;104131;1279;137813;-75
2022/03/29 11:43:14;;;;;;;0.40;0.40;;;;;;;10.74;48.43;99570.16;104041;1280;108637;-75
2022/03/29 11:45:44;;;;;;;0.50;0.40;;;;;;;10.69;48.34;99566.42;104025;1279;98289;-75